<?xml version="1.0" encoding="UTF-8" standalone="no" ?>
<gpx version="1.1" creator="Visorando" xmlns:xsi="http://www.w3.org/2001/XMLSchema-instance" xmlns="http://www.topografix.com/GPX/1/1" xsi:schemaLocation="http://www.topografix.com/GPX/1/1 http://www.topografix.com/GPX/1/1/gpx.xsd">
 <metadata>
  <link href="https://www.visorando.com/">
  <text>https://www.visorando.com/</text></link>
 </metadata>
 <trk>
  <trkseg>
   <trkpt lat="47.884246" lon="6.854942">
    <ele>601</ele>
    <time>2023-02-28T14:33:03+01:00</time>
   </trkpt>
   <trkpt lat="47.884440" lon="6.854620">
    <ele>600</ele>
    <time>2023-02-28T14:33:36+01:00</time>
   </trkpt>
   <trkpt lat="47.884173" lon="6.854388">
    <ele>600</ele>
    <time>2023-02-28T14:34:11+01:00</time>
   </trkpt>
   <trkpt lat="47.883929" lon="6.854277">
    <ele>600</ele>
    <time>2023-02-28T14:34:40+01:00</time>
   </trkpt>
   <trkpt lat="47.883751" lon="6.854012">
    <ele>600</ele>
    <time>2023-02-28T14:35:09+01:00</time>
   </trkpt>
   <trkpt lat="47.883559" lon="6.854576">
    <ele>600</ele>
    <time>2023-02-28T14:35:58+01:00</time>
   </trkpt>
   <trkpt lat="47.883396" lon="6.854962">
    <ele>602</ele>
    <time>2023-02-28T14:36:54+01:00</time>
   </trkpt>
   <trkpt lat="47.883137" lon="6.854841">
    <ele>601</ele>
    <time>2023-02-28T14:37:25+01:00</time>
   </trkpt>
   <trkpt lat="47.882633" lon="6.854774">
    <ele>601</ele>
    <time>2023-02-28T14:38:23+01:00</time>
   </trkpt>
   <trkpt lat="47.881633" lon="6.854322">
    <ele>600</ele>
    <time>2023-02-28T14:40:23+01:00</time>
   </trkpt>
   <trkpt lat="47.880856" lon="6.854012">
    <ele>599</ele>
    <time>2023-02-28T14:41:55+01:00</time>
   </trkpt>
   <trkpt lat="47.879826" lon="6.853328">
    <ele>601</ele>
    <time>2023-02-28T14:44:25+01:00</time>
   </trkpt>
   <trkpt lat="47.879552" lon="6.853383">
    <ele>605</ele>
    <time>2023-02-28T14:45:38+01:00</time>
   </trkpt>
   <trkpt lat="47.879152" lon="6.853648">
    <ele>614</ele>
    <time>2023-02-28T14:48:01+01:00</time>
   </trkpt>
   <trkpt lat="47.878560" lon="6.853328">
    <ele>625</ele>
    <time>2023-02-28T14:51:06+01:00</time>
   </trkpt>
   <trkpt lat="47.877686" lon="6.852853">
    <ele>636</ele>
    <time>2023-02-28T14:54:46+01:00</time>
   </trkpt>
   <trkpt lat="47.877212" lon="6.852610">
    <ele>641</ele>
    <time>2023-02-28T14:56:35+01:00</time>
   </trkpt>
   <trkpt lat="47.876716" lon="6.852477">
    <ele>644</ele>
    <time>2023-02-28T14:58:04+01:00</time>
   </trkpt>
   <trkpt lat="47.876242" lon="6.852588">
    <ele>648</ele>
    <time>2023-02-28T14:59:40+01:00</time>
   </trkpt>
   <trkpt lat="47.875908" lon="6.852742">
    <ele>648</ele>
    <time>2023-02-28T15:00:20+01:00</time>
   </trkpt>
   <trkpt lat="47.875827" lon="6.852897">
    <ele>653</ele>
    <time>2023-02-28T15:01:27+01:00</time>
   </trkpt>
   <trkpt lat="47.875302" lon="6.853342">
    <ele>655</ele>
    <time>2023-02-28T15:02:57+01:00</time>
   </trkpt>
   <trkpt lat="47.874947" lon="6.854292">
    <ele>663</ele>
    <time>2023-02-28T15:05:43+01:00</time>
   </trkpt>
   <trkpt lat="47.874887" lon="6.854623">
    <ele>667</ele>
    <time>2023-02-28T15:06:50+01:00</time>
   </trkpt>
   <trkpt lat="47.874754" lon="6.854623">
    <ele>662</ele>
    <time>2023-02-28T15:07:05+01:00</time>
   </trkpt>
   <trkpt lat="47.874710" lon="6.854435">
    <ele>660</ele>
    <time>2023-02-28T15:07:20+01:00</time>
   </trkpt>
   <trkpt lat="47.874591" lon="6.854170">
    <ele>664</ele>
    <time>2023-02-28T15:08:26+01:00</time>
   </trkpt>
   <trkpt lat="47.874465" lon="6.853795">
    <ele>670</ele>
    <time>2023-02-28T15:10:00+01:00</time>
   </trkpt>
   <trkpt lat="47.874310" lon="6.853485">
    <ele>674</ele>
    <time>2023-02-28T15:11:11+01:00</time>
   </trkpt>
   <trkpt lat="47.874226" lon="6.853172">
    <ele>673</ele>
    <time>2023-02-28T15:11:37+01:00</time>
   </trkpt>
   <trkpt lat="47.873909" lon="6.852860">
    <ele>681</ele>
    <time>2023-02-28T15:13:43+01:00</time>
   </trkpt>
   <trkpt lat="47.873888" lon="6.852689">
    <ele>682</ele>
    <time>2023-02-28T15:14:07+01:00</time>
   </trkpt>
   <trkpt lat="47.873996" lon="6.852487">
    <ele>683</ele>
    <time>2023-02-28T15:14:37+01:00</time>
   </trkpt>
   <trkpt lat="47.874158" lon="6.852367">
    <ele>683</ele>
    <time>2023-02-28T15:14:58+01:00</time>
   </trkpt>
   <trkpt lat="47.874287" lon="6.852246">
    <ele>685</ele>
    <time>2023-02-28T15:15:36+01:00</time>
   </trkpt>
   <trkpt lat="47.874359" lon="6.852051">
    <ele>688</ele>
    <time>2023-02-28T15:16:24+01:00</time>
   </trkpt>
   <trkpt lat="47.874238" lon="6.851869">
    <ele>693</ele>
    <time>2023-02-28T15:17:35+01:00</time>
   </trkpt>
   <trkpt lat="47.873880" lon="6.851950">
    <ele>698</ele>
    <time>2023-02-28T15:19:08+01:00</time>
   </trkpt>
   <trkpt lat="47.873556" lon="6.852101">
    <ele>700</ele>
    <time>2023-02-28T15:20:07+01:00</time>
   </trkpt>
   <trkpt lat="47.873327" lon="6.852000">
    <ele>705</ele>
    <time>2023-02-28T15:21:26+01:00</time>
   </trkpt>
   <trkpt lat="47.873131" lon="6.851920">
    <ele>707</ele>
    <time>2023-02-28T15:22:10+01:00</time>
   </trkpt>
   <trkpt lat="47.872962" lon="6.852010">
    <ele>708</ele>
    <time>2023-02-28T15:22:41+01:00</time>
   </trkpt>
   <trkpt lat="47.872881" lon="6.852443">
    <ele>709</ele>
    <time>2023-02-28T15:23:26+01:00</time>
   </trkpt>
   <trkpt lat="47.872881" lon="6.852725">
    <ele>711</ele>
    <time>2023-02-28T15:24:08+01:00</time>
   </trkpt>
   <trkpt lat="47.872955" lon="6.853097">
    <ele>713</ele>
    <time>2023-02-28T15:24:58+01:00</time>
   </trkpt>
   <trkpt lat="47.873144" lon="6.853721">
    <ele>718</ele>
    <time>2023-02-28T15:26:42+01:00</time>
   </trkpt>
   <trkpt lat="47.873205" lon="6.854466">
    <ele>724</ele>
    <time>2023-02-28T15:28:41+01:00</time>
   </trkpt>
   <trkpt lat="47.873178" lon="6.854949">
    <ele>728</ele>
    <time>2023-02-28T15:29:59+01:00</time>
   </trkpt>
   <trkpt lat="47.872955" lon="6.855211">
    <ele>735</ele>
    <time>2023-02-28T15:31:44+01:00</time>
   </trkpt>
   <trkpt lat="47.872733" lon="6.855502">
    <ele>739</ele>
    <time>2023-02-28T15:32:59+01:00</time>
   </trkpt>
   <trkpt lat="47.872577" lon="6.856418">
    <ele>738</ele>
    <time>2023-02-28T15:34:12+01:00</time>
   </trkpt>
   <trkpt lat="47.872584" lon="6.855895">
    <ele>740</ele>
    <time>2023-02-28T15:35:13+01:00</time>
   </trkpt>
   <trkpt lat="47.872476" lon="6.855583">
    <ele>745</ele>
    <time>2023-02-28T15:36:31+01:00</time>
   </trkpt>
   <trkpt lat="47.872436" lon="6.855412">
    <ele>747</ele>
    <time>2023-02-28T15:37:05+01:00</time>
   </trkpt>
   <trkpt lat="47.872557" lon="6.854979">
    <ele>746</ele>
    <time>2023-02-28T15:37:41+01:00</time>
   </trkpt>
   <trkpt lat="47.872328" lon="6.853957">
    <ele>749</ele>
    <time>2023-02-28T15:39:35+01:00</time>
   </trkpt>
   <trkpt lat="47.872071" lon="6.853524">
    <ele>757</ele>
    <time>2023-02-28T15:41:42+01:00</time>
   </trkpt>
   <trkpt lat="47.871983" lon="6.853132">
    <ele>757</ele>
    <time>2023-02-28T15:42:14+01:00</time>
   </trkpt>
   <trkpt lat="47.871295" lon="6.851703">
    <ele>768</ele>
    <time>2023-02-28T15:46:22+01:00</time>
   </trkpt>
   <trkpt lat="47.871193" lon="6.851478">
    <ele>772</ele>
    <time>2023-02-28T15:47:24+01:00</time>
   </trkpt>
   <trkpt lat="47.871401" lon="6.851168">
    <ele>769</ele>
    <time>2023-02-28T15:47:58+01:00</time>
   </trkpt>
   <trkpt lat="47.871745" lon="6.850595">
    <ele>772</ele>
    <time>2023-02-28T15:49:28+01:00</time>
   </trkpt>
   <trkpt lat="47.872049" lon="6.849709">
    <ele>777</ele>
    <time>2023-02-28T15:51:36+01:00</time>
   </trkpt>
   <trkpt lat="47.872076" lon="6.849538">
    <ele>777</ele>
    <time>2023-02-28T15:51:49+01:00</time>
   </trkpt>
   <trkpt lat="47.871995" lon="6.849256">
    <ele>781</ele>
    <time>2023-02-28T15:52:54+01:00</time>
   </trkpt>
   <trkpt lat="47.871435" lon="6.850112">
    <ele>791</ele>
    <time>2023-02-28T15:56:09+01:00</time>
   </trkpt>
   <trkpt lat="47.870800" lon="6.850524">
    <ele>804</ele>
    <time>2023-02-28T15:59:42+01:00</time>
   </trkpt>
   <trkpt lat="47.870003" lon="6.851273">
    <ele>819</ele>
    <time>2023-02-28T16:04:04+01:00</time>
   </trkpt>
   <trkpt lat="47.869719" lon="6.852088">
    <ele>827</ele>
    <time>2023-02-28T16:06:37+01:00</time>
   </trkpt>
   <trkpt lat="47.869597" lon="6.853698">
    <ele>840</ele>
    <time>2023-02-28T16:10:55+01:00</time>
   </trkpt>
   <trkpt lat="47.869361" lon="6.854080">
    <ele>847</ele>
    <time>2023-02-28T16:12:47+01:00</time>
   </trkpt>
   <trkpt lat="47.869179" lon="6.854513">
    <ele>853</ele>
    <time>2023-02-28T16:14:28+01:00</time>
   </trkpt>
   <trkpt lat="47.869266" lon="6.855701">
    <ele>861</ele>
    <time>2023-02-28T16:17:22+01:00</time>
   </trkpt>
   <trkpt lat="47.869577" lon="6.856345">
    <ele>863</ele>
    <time>2023-02-28T16:18:44+01:00</time>
   </trkpt>
   <trkpt lat="47.869820" lon="6.856928">
    <ele>864</ele>
    <time>2023-02-28T16:19:47+01:00</time>
   </trkpt>
   <trkpt lat="47.870090" lon="6.857744">
    <ele>865</ele>
    <time>2023-02-28T16:21:07+01:00</time>
   </trkpt>
   <trkpt lat="47.870110" lon="6.858076">
    <ele>861</ele>
    <time>2023-02-28T16:21:33+01:00</time>
   </trkpt>
   <trkpt lat="47.869962" lon="6.858428">
    <ele>858</ele>
    <time>2023-02-28T16:22:05+01:00</time>
   </trkpt>
   <trkpt lat="47.869408" lon="6.859253">
    <ele>864</ele>
    <time>2023-02-28T16:24:36+01:00</time>
   </trkpt>
   <trkpt lat="47.869656" lon="6.859455">
    <ele>854</ele>
    <time>2023-02-28T16:25:08+01:00</time>
   </trkpt>
   <trkpt lat="47.869839" lon="6.860160">
    <ele>865</ele>
    <time>2023-02-28T16:27:59+01:00</time>
   </trkpt>
   <trkpt lat="47.869812" lon="6.860290">
    <ele>870</ele>
    <time>2023-02-28T16:29:01+01:00</time>
   </trkpt>
   <trkpt lat="47.869994" lon="6.860955">
    <ele>878</ele>
    <time>2023-02-28T16:31:18+01:00</time>
   </trkpt>
   <trkpt lat="47.870061" lon="6.861750">
    <ele>881</ele>
    <time>2023-02-28T16:32:50+01:00</time>
   </trkpt>
   <trkpt lat="47.870149" lon="6.861860">
    <ele>881</ele>
    <time>2023-02-28T16:33:03+01:00</time>
   </trkpt>
   <trkpt lat="47.870520" lon="6.861850">
    <ele>880</ele>
    <time>2023-02-28T16:33:45+01:00</time>
   </trkpt>
   <trkpt lat="47.870824" lon="6.861971">
    <ele>888</ele>
    <time>2023-02-28T16:35:43+01:00</time>
   </trkpt>
   <trkpt lat="47.871231" lon="6.862221">
    <ele>896</ele>
    <time>2023-02-28T16:37:56+01:00</time>
   </trkpt>
   <trkpt lat="47.871679" lon="6.862443">
    <ele>900</ele>
    <time>2023-02-28T16:39:31+01:00</time>
   </trkpt>
   <trkpt lat="47.872463" lon="6.862665">
    <ele>900</ele>
    <time>2023-02-28T16:41:02+01:00</time>
   </trkpt>
   <trkpt lat="47.872604" lon="6.862685">
    <ele>899</ele>
    <time>2023-02-28T16:41:18+01:00</time>
   </trkpt>
   <trkpt lat="47.872886" lon="6.862830">
    <ele>900</ele>
    <time>2023-02-28T16:42:02+01:00</time>
   </trkpt>
   <trkpt lat="47.873024" lon="6.863047">
    <ele>904</ele>
    <time>2023-02-28T16:43:06+01:00</time>
   </trkpt>
   <trkpt lat="47.873360" lon="6.863278">
    <ele>904</ele>
    <time>2023-02-28T16:43:48+01:00</time>
   </trkpt>
   <trkpt lat="47.873819" lon="6.863852">
    <ele>909</ele>
    <time>2023-02-28T16:45:48+01:00</time>
   </trkpt>
   <trkpt lat="47.873968" lon="6.864556">
    <ele>913</ele>
    <time>2023-02-28T16:47:26+01:00</time>
   </trkpt>
   <trkpt lat="47.873846" lon="6.865150">
    <ele>913</ele>
    <time>2023-02-28T16:48:14+01:00</time>
   </trkpt>
   <trkpt lat="47.873461" lon="6.865673">
    <ele>917</ele>
    <time>2023-02-28T16:49:55+01:00</time>
   </trkpt>
   <trkpt lat="47.873191" lon="6.866066">
    <ele>920</ele>
    <time>2023-02-28T16:51:09+01:00</time>
   </trkpt>
   <trkpt lat="47.872786" lon="6.866720">
    <ele>925</ele>
    <time>2023-02-28T16:53:09+01:00</time>
   </trkpt>
   <trkpt lat="47.872422" lon="6.867455">
    <ele>926</ele>
    <time>2023-02-28T16:54:29+01:00</time>
   </trkpt>
   <trkpt lat="47.872298" lon="6.867809">
    <ele>928</ele>
    <time>2023-02-28T16:55:20+01:00</time>
   </trkpt>
   <trkpt lat="47.872298" lon="6.868081">
    <ele>930</ele>
    <time>2023-02-28T16:56:01+01:00</time>
   </trkpt>
   <trkpt lat="47.872366" lon="6.868373">
    <ele>931</ele>
    <time>2023-02-28T16:56:35+01:00</time>
   </trkpt>
   <trkpt lat="47.872535" lon="6.868685">
    <ele>930</ele>
    <time>2023-02-28T16:57:06+01:00</time>
   </trkpt>
   <trkpt lat="47.872737" lon="6.869148">
    <ele>932</ele>
    <time>2023-02-28T16:58:09+01:00</time>
   </trkpt>
   <trkpt lat="47.873014" lon="6.869913">
    <ele>937</ele>
    <time>2023-02-28T17:00:07+01:00</time>
   </trkpt>
   <trkpt lat="47.873068" lon="6.870466">
    <ele>939</ele>
    <time>2023-02-28T17:01:10+01:00</time>
   </trkpt>
   <trkpt lat="47.872953" lon="6.870677">
    <ele>940</ele>
    <time>2023-02-28T17:01:41+01:00</time>
   </trkpt>
   <trkpt lat="47.872197" lon="6.870924">
    <ele>950</ele>
    <time>2023-02-28T17:04:52+01:00</time>
   </trkpt>
   <trkpt lat="47.871839" lon="6.871055">
    <ele>954</ele>
    <time>2023-02-28T17:06:15+01:00</time>
   </trkpt>
   <trkpt lat="47.871589" lon="6.871458">
    <ele>953</ele>
    <time>2023-02-28T17:06:57+01:00</time>
   </trkpt>
   <trkpt lat="47.871576" lon="6.871961">
    <ele>955</ele>
    <time>2023-02-28T17:07:56+01:00</time>
   </trkpt>
   <trkpt lat="47.871758" lon="6.872484">
    <ele>954</ele>
    <time>2023-02-28T17:08:41+01:00</time>
   </trkpt>
   <trkpt lat="47.872075" lon="6.873168">
    <ele>947</ele>
    <time>2023-02-28T17:09:45+01:00</time>
   </trkpt>
   <trkpt lat="47.872129" lon="6.873742">
    <ele>948</ele>
    <time>2023-02-28T17:10:40+01:00</time>
   </trkpt>
   <trkpt lat="47.871907" lon="6.874799">
    <ele>953</ele>
    <time>2023-02-28T17:12:56+01:00</time>
   </trkpt>
   <trkpt lat="47.871825" lon="6.874947">
    <ele>955</ele>
    <time>2023-02-28T17:13:31+01:00</time>
   </trkpt>
   <trkpt lat="47.871663" lon="6.875088">
    <ele>962</ele>
    <time>2023-02-28T17:15:04+01:00</time>
   </trkpt>
   <trkpt lat="47.871582" lon="6.875601">
    <ele>959</ele>
    <time>2023-02-28T17:15:44+01:00</time>
   </trkpt>
   <trkpt lat="47.871582" lon="6.876537">
    <ele>963</ele>
    <time>2023-02-28T17:17:37+01:00</time>
   </trkpt>
   <trkpt lat="47.871557" lon="6.877302">
    <ele>975</ele>
    <time>2023-02-28T17:20:39+01:00</time>
   </trkpt>
   <trkpt lat="47.872286" lon="6.879053">
    <ele>984</ele>
    <time>2023-02-28T17:24:50+01:00</time>
   </trkpt>
   <trkpt lat="47.872617" lon="6.879757">
    <ele>989</ele>
    <time>2023-02-28T17:26:47+01:00</time>
   </trkpt>
   <trkpt lat="47.872846" lon="6.879848">
    <ele>988</ele>
    <time>2023-02-28T17:27:14+01:00</time>
   </trkpt>
   <trkpt lat="47.873710" lon="6.879234">
    <ele>976</ele>
    <time>2023-02-28T17:29:04+01:00</time>
   </trkpt>
   <trkpt lat="47.874061" lon="6.878962">
    <ele>973</ele>
    <time>2023-02-28T17:29:49+01:00</time>
   </trkpt>
   <trkpt lat="47.874412" lon="6.878791">
    <ele>970</ele>
    <time>2023-02-28T17:30:31+01:00</time>
   </trkpt>
   <trkpt lat="47.874635" lon="6.878801">
    <ele>971</ele>
    <time>2023-02-28T17:31:07+01:00</time>
   </trkpt>
   <trkpt lat="47.874890" lon="6.878985">
    <ele>977</ele>
    <time>2023-02-28T17:32:41+01:00</time>
   </trkpt>
   <trkpt lat="47.875150" lon="6.878842">
    <ele>974</ele>
    <time>2023-02-28T17:33:13+01:00</time>
   </trkpt>
   <trkpt lat="47.875683" lon="6.878689">
    <ele>974</ele>
    <time>2023-02-28T17:34:15+01:00</time>
   </trkpt>
   <trkpt lat="47.876271" lon="6.878374">
    <ele>966</ele>
    <time>2023-02-28T17:35:27+01:00</time>
   </trkpt>
   <trkpt lat="47.877459" lon="6.877070">
    <ele>954</ele>
    <time>2023-02-28T17:38:16+01:00</time>
   </trkpt>
   <trkpt lat="47.878272" lon="6.876556">
    <ele>954</ele>
    <time>2023-02-28T17:39:57+01:00</time>
   </trkpt>
   <trkpt lat="47.878593" lon="6.876129">
    <ele>950</ele>
    <time>2023-02-28T17:40:46+01:00</time>
   </trkpt>
   <trkpt lat="47.878750" lon="6.875762">
    <ele>942</ele>
    <time>2023-02-28T17:41:19+01:00</time>
   </trkpt>
   <trkpt lat="47.879058" lon="6.875405">
    <ele>940</ele>
    <time>2023-02-28T17:42:04+01:00</time>
   </trkpt>
   <trkpt lat="47.879292" lon="6.875059">
    <ele>936</ele>
    <time>2023-02-28T17:42:42+01:00</time>
   </trkpt>
   <trkpt lat="47.879688" lon="6.874804">
    <ele>928</ele>
    <time>2023-02-28T17:43:31+01:00</time>
   </trkpt>
   <trkpt lat="47.879968" lon="6.874916">
    <ele>926</ele>
    <time>2023-02-28T17:44:04+01:00</time>
   </trkpt>
   <trkpt lat="47.880249" lon="6.874904">
    <ele>919</ele>
    <time>2023-02-28T17:44:36+01:00</time>
   </trkpt>
   <trkpt lat="47.880515" lon="6.875098">
    <ele>916</ele>
    <time>2023-02-28T17:45:10+01:00</time>
   </trkpt>
   <trkpt lat="47.880796" lon="6.875567">
    <ele>914</ele>
    <time>2023-02-28T17:45:58+01:00</time>
   </trkpt>
   <trkpt lat="47.880864" lon="6.875882">
    <ele>910</ele>
    <time>2023-02-28T17:46:23+01:00</time>
   </trkpt>
   <trkpt lat="47.880686" lon="6.876188">
    <ele>911</ele>
    <time>2023-02-28T17:47:04+01:00</time>
   </trkpt>
   <trkpt lat="47.880490" lon="6.876485">
    <ele>913</ele>
    <time>2023-02-28T17:47:57+01:00</time>
   </trkpt>
   <trkpt lat="47.880280" lon="6.877154">
    <ele>907</ele>
    <time>2023-02-28T17:48:54+01:00</time>
   </trkpt>
   <trkpt lat="47.880123" lon="6.879100">
    <ele>887</ele>
    <time>2023-02-28T17:51:25+01:00</time>
   </trkpt>
   <trkpt lat="47.880095" lon="6.879711">
    <ele>883</ele>
    <time>2023-02-28T17:52:12+01:00</time>
   </trkpt>
   <trkpt lat="47.880293" lon="6.880760">
    <ele>861</ele>
    <time>2023-02-28T17:53:36+01:00</time>
   </trkpt>
   <trkpt lat="47.880307" lon="6.881031">
    <ele>858</ele>
    <time>2023-02-28T17:53:57+01:00</time>
   </trkpt>
   <trkpt lat="47.880150" lon="6.881755">
    <ele>856</ele>
    <time>2023-02-28T17:54:55+01:00</time>
   </trkpt>
   <trkpt lat="47.880108" lon="6.882060">
    <ele>853</ele>
    <time>2023-02-28T17:55:19+01:00</time>
   </trkpt>
   <trkpt lat="47.879956" lon="6.882362">
    <ele>854</ele>
    <time>2023-02-28T17:55:58+01:00</time>
   </trkpt>
   <trkpt lat="47.879678" lon="6.882726">
    <ele>855</ele>
    <time>2023-02-28T17:56:51+01:00</time>
   </trkpt>
   <trkpt lat="47.878557" lon="6.883229">
    <ele>878</ele>
    <time>2023-02-28T18:03:02+01:00</time>
   </trkpt>
   <trkpt lat="47.878271" lon="6.883480">
    <ele>878</ele>
    <time>2023-02-28T18:03:40+01:00</time>
   </trkpt>
   <trkpt lat="47.877672" lon="6.884435">
    <ele>877</ele>
    <time>2023-02-28T18:05:20+01:00</time>
   </trkpt>
   <trkpt lat="47.877580" lon="6.885038">
    <ele>872</ele>
    <time>2023-02-28T18:06:07+01:00</time>
   </trkpt>
   <trkpt lat="47.877647" lon="6.885679">
    <ele>863</ele>
    <time>2023-02-28T18:06:57+01:00</time>
   </trkpt>
   <trkpt lat="47.877620" lon="6.886314">
    <ele>860</ele>
    <time>2023-02-28T18:07:46+01:00</time>
   </trkpt>
   <trkpt lat="47.877409" lon="6.887134">
    <ele>862</ele>
    <time>2023-02-28T18:09:14+01:00</time>
   </trkpt>
   <trkpt lat="47.877097" lon="6.887825">
    <ele>865</ele>
    <time>2023-02-28T18:10:49+01:00</time>
   </trkpt>
   <trkpt lat="47.876841" lon="6.888522">
    <ele>860</ele>
    <time>2023-02-28T18:11:50+01:00</time>
   </trkpt>
   <trkpt lat="47.876470" lon="6.888886">
    <ele>863</ele>
    <time>2023-02-28T18:13:12+01:00</time>
   </trkpt>
   <trkpt lat="47.875686" lon="6.889339">
    <ele>870</ele>
    <time>2023-02-28T18:16:00+01:00</time>
   </trkpt>
   <trkpt lat="47.875518" lon="6.889540">
    <ele>871</ele>
    <time>2023-02-28T18:16:35+01:00</time>
   </trkpt>
   <trkpt lat="47.875510" lon="6.889926">
    <ele>866</ele>
    <time>2023-02-28T18:17:05+01:00</time>
   </trkpt>
   <trkpt lat="47.875586" lon="6.890240">
    <ele>861</ele>
    <time>2023-02-28T18:17:31+01:00</time>
   </trkpt>
   <trkpt lat="47.875304" lon="6.891121">
    <ele>863</ele>
    <time>2023-02-28T18:19:07+01:00</time>
   </trkpt>
   <trkpt lat="47.875127" lon="6.891549">
    <ele>863</ele>
    <time>2023-02-28T18:19:46+01:00</time>
   </trkpt>
   <trkpt lat="47.875060" lon="6.891875">
    <ele>858</ele>
    <time>2023-02-28T18:20:12+01:00</time>
   </trkpt>
   <trkpt lat="47.874954" lon="6.892228">
    <ele>855</ele>
    <time>2023-02-28T18:20:42+01:00</time>
   </trkpt>
   <trkpt lat="47.874786" lon="6.892416">
    <ele>856</ele>
    <time>2023-02-28T18:21:16+01:00</time>
   </trkpt>
   <trkpt lat="47.874625" lon="6.892655">
    <ele>857</ele>
    <time>2023-02-28T18:21:52+01:00</time>
   </trkpt>
   <trkpt lat="47.874634" lon="6.892932">
    <ele>856</ele>
    <time>2023-02-28T18:22:13+01:00</time>
   </trkpt>
   <trkpt lat="47.874979" lon="6.893321">
    <ele>851</ele>
    <time>2023-02-28T18:23:03+01:00</time>
   </trkpt>
   <trkpt lat="47.876100" lon="6.894289">
    <ele>849</ele>
    <time>2023-02-28T18:25:31+01:00</time>
   </trkpt>
   <trkpt lat="47.876648" lon="6.895068">
    <ele>846</ele>
    <time>2023-02-28T18:26:58+01:00</time>
   </trkpt>
   <trkpt lat="47.877019" lon="6.895508">
    <ele>835</ele>
    <time>2023-02-28T18:27:52+01:00</time>
   </trkpt>
   <trkpt lat="47.877500" lon="6.895872">
    <ele>818</ele>
    <time>2023-02-28T18:28:54+01:00</time>
   </trkpt>
   <trkpt lat="47.877668" lon="6.896136">
    <ele>815</ele>
    <time>2023-02-28T18:29:22+01:00</time>
   </trkpt>
   <trkpt lat="47.877862" lon="6.897254">
    <ele>811</ele>
    <time>2023-02-28T18:30:51+01:00</time>
   </trkpt>
   <trkpt lat="47.878047" lon="6.897430">
    <ele>812</ele>
    <time>2023-02-28T18:31:26+01:00</time>
   </trkpt>
   <trkpt lat="47.878568" lon="6.896789">
    <ele>803</ele>
    <time>2023-02-28T18:32:43+01:00</time>
   </trkpt>
   <trkpt lat="47.878765" lon="6.896727">
    <ele>801</ele>
    <time>2023-02-28T18:33:06+01:00</time>
   </trkpt>
   <trkpt lat="47.878867" lon="6.897003">
    <ele>804</ele>
    <time>2023-02-28T18:34:01+01:00</time>
   </trkpt>
   <trkpt lat="47.878900" lon="6.897305">
    <ele>806</ele>
    <time>2023-02-28T18:34:45+01:00</time>
   </trkpt>
   <trkpt lat="47.879001" lon="6.897418">
    <ele>804</ele>
    <time>2023-02-28T18:34:59+01:00</time>
   </trkpt>
   <trkpt lat="47.879178" lon="6.897317">
    <ele>799</ele>
    <time>2023-02-28T18:35:21+01:00</time>
   </trkpt>
   <trkpt lat="47.879153" lon="6.896752">
    <ele>795</ele>
    <time>2023-02-28T18:36:04+01:00</time>
   </trkpt>
   <trkpt lat="47.879178" lon="6.896450">
    <ele>792</ele>
    <time>2023-02-28T18:36:27+01:00</time>
   </trkpt>
   <trkpt lat="47.879001" lon="6.895847">
    <ele>786</ele>
    <time>2023-02-28T18:37:18+01:00</time>
   </trkpt>
   <trkpt lat="47.878715" lon="6.895910">
    <ele>785</ele>
    <time>2023-02-28T18:37:51+01:00</time>
   </trkpt>
   <trkpt lat="47.878369" lon="6.895583">
    <ele>782</ele>
    <time>2023-02-28T18:38:38+01:00</time>
   </trkpt>
   <trkpt lat="47.878116" lon="6.894641">
    <ele>773</ele>
    <time>2023-02-28T18:39:56+01:00</time>
   </trkpt>
   <trkpt lat="47.877712" lon="6.893836">
    <ele>764</ele>
    <time>2023-02-28T18:41:13+01:00</time>
   </trkpt>
   <trkpt lat="47.877400" lon="6.893208">
    <ele>758</ele>
    <time>2023-02-28T18:42:13+01:00</time>
   </trkpt>
   <trkpt lat="47.877198" lon="6.893032">
    <ele>760</ele>
    <time>2023-02-28T18:43:00+01:00</time>
   </trkpt>
   <trkpt lat="47.877172" lon="6.892869">
    <ele>760</ele>
    <time>2023-02-28T18:43:13+01:00</time>
   </trkpt>
   <trkpt lat="47.877774" lon="6.891841">
    <ele>752</ele>
    <time>2023-02-28T18:44:58+01:00</time>
   </trkpt>
   <trkpt lat="47.878149" lon="6.891395">
    <ele>744</ele>
    <time>2023-02-28T18:45:53+01:00</time>
   </trkpt>
   <trkpt lat="47.878414" lon="6.891217">
    <ele>738</ele>
    <time>2023-02-28T18:46:26+01:00</time>
   </trkpt>
   <trkpt lat="47.878601" lon="6.891192">
    <ele>732</ele>
    <time>2023-02-28T18:46:47+01:00</time>
   </trkpt>
   <trkpt lat="47.878635" lon="6.890810">
    <ele>738</ele>
    <time>2023-02-28T18:48:18+01:00</time>
   </trkpt>
   <trkpt lat="47.878704" lon="6.890658">
    <ele>739</ele>
    <time>2023-02-28T18:48:42+01:00</time>
   </trkpt>
   <trkpt lat="47.879275" lon="6.890391">
    <ele>726</ele>
    <time>2023-02-28T18:49:51+01:00</time>
   </trkpt>
   <trkpt lat="47.880130" lon="6.889226">
    <ele>717</ele>
    <time>2023-02-28T18:52:04+01:00</time>
   </trkpt>
   <trkpt lat="47.880497" lon="6.888985">
    <ele>712</ele>
    <time>2023-02-28T18:52:50+01:00</time>
   </trkpt>
   <trkpt lat="47.881444" lon="6.887405">
    <ele>701</ele>
    <time>2023-02-28T18:55:33+01:00</time>
   </trkpt>
   <trkpt lat="47.881955" lon="6.886120">
    <ele>702</ele>
    <time>2023-02-28T18:57:38+01:00</time>
   </trkpt>
   <trkpt lat="47.882143" lon="6.885917">
    <ele>702</ele>
    <time>2023-02-28T18:58:05+01:00</time>
   </trkpt>
   <trkpt lat="47.882664" lon="6.885560">
    <ele>692</ele>
    <time>2023-02-28T18:59:11+01:00</time>
   </trkpt>
   <trkpt lat="47.882851" lon="6.885230">
    <ele>690</ele>
    <time>2023-02-28T18:59:44+01:00</time>
   </trkpt>
   <trkpt lat="47.883064" lon="6.884721">
    <ele>690</ele>
    <time>2023-02-28T19:00:30+01:00</time>
   </trkpt>
   <trkpt lat="47.883747" lon="6.883856">
    <ele>683</ele>
    <time>2023-02-28T19:02:13+01:00</time>
   </trkpt>
   <trkpt lat="47.884150" lon="6.882724">
    <ele>686</ele>
    <time>2023-02-28T19:04:22+01:00</time>
   </trkpt>
   <trkpt lat="47.884662" lon="6.882508">
    <ele>676</ele>
    <time>2023-02-28T19:05:23+01:00</time>
   </trkpt>
   <trkpt lat="47.885301" lon="6.881744">
    <ele>671</ele>
    <time>2023-02-28T19:06:57+01:00</time>
   </trkpt>
   <trkpt lat="47.885463" lon="6.881414">
    <ele>670</ele>
    <time>2023-02-28T19:07:28+01:00</time>
   </trkpt>
   <trkpt lat="47.885660" lon="6.880930">
    <ele>668</ele>
    <time>2023-02-28T19:08:11+01:00</time>
   </trkpt>
   <trkpt lat="47.885805" lon="6.880485">
    <ele>668</ele>
    <time>2023-02-28T19:08:49+01:00</time>
   </trkpt>
   <trkpt lat="47.886214" lon="6.880167">
    <ele>665</ele>
    <time>2023-02-28T19:09:42+01:00</time>
   </trkpt>
   <trkpt lat="47.886939" lon="6.879836">
    <ele>666</ele>
    <time>2023-02-28T19:11:19+01:00</time>
   </trkpt>
   <trkpt lat="47.887442" lon="6.879480">
    <ele>663</ele>
    <time>2023-02-28T19:12:23+01:00</time>
   </trkpt>
   <trkpt lat="47.887654" lon="6.878884">
    <ele>667</ele>
    <time>2023-02-28T19:13:56+01:00</time>
   </trkpt>
   <trkpt lat="47.887790" lon="6.878203">
    <ele>672</ele>
    <time>2023-02-28T19:15:42+01:00</time>
   </trkpt>
   <trkpt lat="47.887935" lon="6.877898">
    <ele>671</ele>
    <time>2023-02-28T19:16:11+01:00</time>
   </trkpt>
   <trkpt lat="47.888123" lon="6.877669">
    <ele>667</ele>
    <time>2023-02-28T19:16:39+01:00</time>
   </trkpt>
   <trkpt lat="47.888311" lon="6.877186">
    <ele>664</ele>
    <time>2023-02-28T19:17:22+01:00</time>
   </trkpt>
   <trkpt lat="47.888259" lon="6.876893">
    <ele>670</ele>
    <time>2023-02-28T19:18:47+01:00</time>
   </trkpt>
   <trkpt lat="47.888413" lon="6.876168">
    <ele>668</ele>
    <time>2023-02-28T19:19:45+01:00</time>
   </trkpt>
   <trkpt lat="47.888584" lon="6.874680">
    <ele>676</ele>
    <time>2023-02-28T19:23:03+01:00</time>
   </trkpt>
   <trkpt lat="47.888652" lon="6.874375">
    <ele>681</ele>
    <time>2023-02-28T19:24:19+01:00</time>
   </trkpt>
   <trkpt lat="47.888848" lon="6.873993">
    <ele>682</ele>
    <time>2023-02-28T19:25:06+01:00</time>
   </trkpt>
   <trkpt lat="47.888549" lon="6.872556">
    <ele>685</ele>
    <time>2023-02-28T19:27:32+01:00</time>
   </trkpt>
   <trkpt lat="47.888063" lon="6.871335">
    <ele>691</ele>
    <time>2023-02-28T19:30:23+01:00</time>
   </trkpt>
   <trkpt lat="47.887841" lon="6.870915">
    <ele>698</ele>
    <time>2023-02-28T19:32:16+01:00</time>
   </trkpt>
   <trkpt lat="47.887791" lon="6.869891">
    <ele>698</ele>
    <time>2023-02-28T19:33:35+01:00</time>
   </trkpt>
   <trkpt lat="47.887954" lon="6.869267">
    <ele>693</ele>
    <time>2023-02-28T19:34:26+01:00</time>
   </trkpt>
   <trkpt lat="47.887954" lon="6.868974">
    <ele>693</ele>
    <time>2023-02-28T19:34:48+01:00</time>
   </trkpt>
   <trkpt lat="47.887911" lon="6.868400">
    <ele>690</ele>
    <time>2023-02-28T19:35:32+01:00</time>
   </trkpt>
   <trkpt lat="47.887783" lon="6.866619">
    <ele>679</ele>
    <time>2023-02-28T19:37:50+01:00</time>
   </trkpt>
   <trkpt lat="47.887996" lon="6.865894">
    <ele>673</ele>
    <time>2023-02-28T19:38:51+01:00</time>
   </trkpt>
   <trkpt lat="47.888070" lon="6.865299">
    <ele>665</ele>
    <time>2023-02-28T19:39:37+01:00</time>
   </trkpt>
   <trkpt lat="47.888019" lon="6.864803">
    <ele>664</ele>
    <time>2023-02-28T19:40:16+01:00</time>
   </trkpt>
   <trkpt lat="47.887942" lon="6.863557">
    <ele>649</ele>
    <time>2023-02-28T19:41:52+01:00</time>
   </trkpt>
   <trkpt lat="47.887809" lon="6.862885">
    <ele>642</ele>
    <time>2023-02-28T19:42:46+01:00</time>
   </trkpt>
   <trkpt lat="47.887562" lon="6.862198">
    <ele>638</ele>
    <time>2023-02-28T19:43:46+01:00</time>
   </trkpt>
   <trkpt lat="47.887280" lon="6.861396">
    <ele>630</ele>
    <time>2023-02-28T19:44:56+01:00</time>
   </trkpt>
   <trkpt lat="47.886982" lon="6.860671">
    <ele>622</ele>
    <time>2023-02-28T19:46:01+01:00</time>
   </trkpt>
   <trkpt lat="47.886854" lon="6.860442">
    <ele>620</ele>
    <time>2023-02-28T19:46:24+01:00</time>
   </trkpt>
   <trkpt lat="47.886482" lon="6.860230">
    <ele>622</ele>
    <time>2023-02-28T19:47:30+01:00</time>
   </trkpt>
   <trkpt lat="47.886029" lon="6.860138">
    <ele>627</ele>
    <time>2023-02-28T19:49:14+01:00</time>
   </trkpt>
   <trkpt lat="47.886122" lon="6.859839">
    <ele>620</ele>
    <time>2023-02-28T19:49:39+01:00</time>
   </trkpt>
   <trkpt lat="47.886206" lon="6.859493">
    <ele>614</ele>
    <time>2023-02-28T19:50:07+01:00</time>
   </trkpt>
   <trkpt lat="47.886299" lon="6.859095">
    <ele>609</ele>
    <time>2023-02-28T19:50:39+01:00</time>
   </trkpt>
   <trkpt lat="47.885698" lon="6.858404">
    <ele>608</ele>
    <time>2023-02-28T19:52:06+01:00</time>
   </trkpt>
   <trkpt lat="47.885083" lon="6.857453">
    <ele>606</ele>
    <time>2023-02-28T19:53:47+01:00</time>
   </trkpt>
   <trkpt lat="47.884815" lon="6.857107">
    <ele>605</ele>
    <time>2023-02-28T19:54:28+01:00</time>
   </trkpt>
   <trkpt lat="47.884261" lon="6.856777">
    <ele>605</ele>
    <time>2023-02-28T19:55:36+01:00</time>
   </trkpt>
   <trkpt lat="47.883774" lon="6.856011">
    <ele>605</ele>
    <time>2023-02-28T19:56:57+01:00</time>
   </trkpt>
   <trkpt lat="47.883744" lon="6.855845">
    <ele>605</ele>
    <time>2023-02-28T19:57:10+01:00</time>
   </trkpt>
   <trkpt lat="47.883767" lon="6.855500">
    <ele>603</ele>
    <time>2023-02-28T19:57:37+01:00</time>
   </trkpt>
   <trkpt lat="47.883559" lon="6.855151">
    <ele>603</ele>
    <time>2023-02-28T19:58:13+01:00</time>
   </trkpt>
   <trkpt lat="47.883375" lon="6.854945">
    <ele>602</ele>
    <time>2023-02-28T19:58:39+01:00</time>
   </trkpt>
   <trkpt lat="47.883751" lon="6.854004">
    <ele>600</ele>
    <time>2023-02-28T20:00:03+01:00</time>
   </trkpt>
   <trkpt lat="47.883933" lon="6.854289">
    <ele>600</ele>
    <time>2023-02-28T20:00:33+01:00</time>
   </trkpt>
   <trkpt lat="47.884188" lon="6.854384">
    <ele>600</ele>
    <time>2023-02-28T20:01:03+01:00</time>
   </trkpt>
   <trkpt lat="47.884436" lon="6.854630">
    <ele>600</ele>
    <time>2023-02-28T20:01:37+01:00</time>
   </trkpt>
   <trkpt lat="47.884369" lon="6.854785">
    <ele>600</ele>
    <time>2023-02-28T20:01:51+01:00</time>
   </trkpt>
   <trkpt lat="47.884268" lon="6.854835">
    <ele>600</ele>
    <time>2023-02-28T20:02:03+01:00</time>
   </trkpt>
   <trkpt lat="47.884221" lon="6.854855">
    <ele>600</ele>
    <time>2023-02-28T20:02:09+01:00</time>
   </trkpt>
  </trkseg>
 </trk></gpx>